MMGM

General José María Yáñez International Airport

Guaymas, Mexico
TAF MMGM 211644Z 2118/2218 20010KT P6SM SKC FM220300 02005KT P6SM SKC FM221700 24012KT P6SM SCT020 BKN250
Issued Valid From Valid To
Jun-21 @ 16:44 UTC
(an hour ago)
Jun-21 @ 18:00 UTC
(7 minutes ago)
Jun-22 @ 18:00 UTC
(in 24 hours)
Jun-21 @ 18:00 to Jun-22 @ 03:00
TAF MMGM 211644Z 2118/2218 20010KT P6SM SKC
Wind Visibility Clouds
200° at 10 knots Greater than 6 miles
  • Clear skies
From Jun-22 @ 03:00 to Jun-22 @ 17:00
FM220300 02005KT P6SM SKC
Wind Visibility Clouds
20° at 5 knots Greater than 6 miles
  • Clear skies
From Jun-22 @ 17:00 to Jun-22 @ 18:00
FM221700 24012KT P6SM SCT020 BKN250
Wind Visibility Clouds
240° at 12 knots Greater than 6 miles
  • Scattered at 2,000' AGL
  • Broken at 25,000' AGL
TAF MMGM 211644Z 2118/2218 20010KT P6SM SKC FM220300 02005KT P6SM SKC FM221700 24012KT P6SM SCT020 BKN250
Issued Jun-21 @ 16:44 UTC
(an hour ago)
Valid From Jun-21 @ 18:00 UTC
(7 minutes ago)
Valid To Jun-22 @ 18:00 UTC
(in 24 hours)
Jun-21 @ 18:00 - Jun-22 @ 03:00
Wind Visibility
200° at 10 knots Greater than 6 miles
Clouds
  • Clear skies
From Jun-22 @ 03:00 - Jun-22 @ 17:00
Wind Visibility
20° at 5 knots Greater than 6 miles
Clouds
  • Clear skies
From Jun-22 @ 17:00 - Jun-22 @ 18:00
Wind Visibility
240° at 12 knots Greater than 6 miles
Clouds
  • Scattered at 2,000' AGL
  • Broken at 25,000' AGL